sensor_id;sensor_type;location;lat;lon;timestamp;pressure;altitude;pressure_sealevel;temperature;humidity
22440;BME280;11387;51.612;7.210;2023-12-07T00:01:58;100991.19;;;1.26;100.00
22440;BME280;11387;51.612;7.210;2023-12-07T00:04:29;100986.13;;;1.18;100.00
22440;BME280;11387;51.612;7.210;2023-12-07T00:06:57;100995.97;;;1.24;100.00
22440;BME280;11387;51.612;7.210;2023-12-07T00:09:27;100993.63;;;1.16;100.00
22440;BME280;11387;51.612;7.210;2023-12-07T00:11:55;100992.88;;;1.09;100.00
22440;BME280;11387;51.612;7.210;2023-12-07T00:14:24;100991.22;;;1.08;100.00
22440;BME280;11387;51.612;7.210;2023-12-07T00:16:52;100995.19;;;1.05;100.00
22440;BME280;11387;51.612;7.210;2023-12-07T00:19:21;100998.84;;;1.11;100.00
22440;BME280;11387;51.612;7.210;2023-12-07T00:21:55;100997.00;;;1.11;100.00
22440;BME280;11387;51.612;7.210;2023-12-07T00:24:24;100999.47;;;1.13;100.00
22440;BME280;11387;51.612;7.210;2023-12-07T00:26:52;101000.13;;;1.08;100.00
22440;BME280;11387;51.612;7.210;2023-12-07T00:29:21;101011.13;;;1.07;100.00
22440;BME280;11387;51.612;7.210;2023-12-07T00:31:50;101004.69;;;1.08;100.00
22440;BME280;11387;51.612;7.210;2023-12-07T00:34:19;100998.50;;;1.07;100.00
22440;BME280;11387;51.612;7.210;2023-12-07T00:36:48;101001.25;;;1.00;100.00
22440;BME280;11387;51.612;7.210;2023-12-07T00:39:18;101003.97;;;1.00;100.00
22440;BME280;11387;51.612;7.210;2023-12-07T00:41:47;101006.06;;;0.98;100.00
22440;BME280;11387;51.612;7.210;2023-12-07T00:44:16;101006.81;;;1.06;100.00
22440;BME280;11387;51.612;7.210;2023-12-07T00:46:44;101006.50;;;0.95;100.00
22440;BME280;11387;51.612;7.210;2023-12-07T00:49:13;101003.97;;;1.00;100.00
22440;BME280;11387;51.612;7.210;2023-12-07T00:51:41;101002.97;;;0.95;100.00
22440;BME280;11387;51.612;7.210;2023-12-07T00:54:10;101002.97;;;0.95;100.00
22440;BME280;11387;51.612;7.210;2023-12-07T00:56:40;101003.34;;;0.98;100.00
22440;BME280;11387;51.612;7.210;2023-12-07T00:59:08;101004.50;;;0.91;100.00
22440;BME280;11387;51.612;7.210;2023-12-07T01:01:37;101001.00;;;0.90;100.00
22440;BME280;11387;51.612;7.210;2023-12-07T01:04:06;101000.50;;;0.93;100.00
22440;BME280;11387;51.612;7.210;2023-12-07T01:06:35;101013.41;;;0.91;100.00
22440;BME280;11387;51.612;7.210;2023-12-07T01:09:03;101005.19;;;0.86;100.00
22440;BME280;11387;51.612;7.210;2023-12-07T01:11:32;101008.75;;;0.80;100.00
22440;BME280;11387;51.612;7.210;2023-12-07T01:14:02;101017.75;;;0.74;100.00
22440;BME280;11387;51.612;7.210;2023-12-07T01:16:30;101014.66;;;0.71;100.00
22440;BME280;11387;51.612;7.210;2023-12-07T01:18:59;101021.63;;;0.78;100.00
22440;BME280;11387;51.612;7.210;2023-12-07T01:21:27;101017.44;;;0.82;100.00
22440;BME280;11387;51.612;7.210;2023-12-07T01:23:56;101017.22;;;0.84;100.00
22440;BME280;11387;51.612;7.210;2023-12-07T01:26:39;101011.69;;;0.79;100.00
22440;BME280;11387;51.612;7.210;2023-12-07T01:29:08;101016.31;;;0.72;100.00
22440;BME280;11387;51.612;7.210;2023-12-07T01:31:37;101017.59;;;0.69;100.00
22440;BME280;11387;51.612;7.210;2023-12-07T01:34:05;101018.03;;;0.66;100.00
22440;BME280;11387;51.612;7.210;2023-12-07T01:36:34;101026.56;;;0.81;100.00
22440;BME280;11387;51.612;7.210;2023-12-07T01:39:03;101020.66;;;0.73;100.00
22440;BME280;11387;51.612;7.210;2023-12-07T01:41:32;101016.25;;;0.78;100.00
22440;BME280;11387;51.612;7.210;2023-12-07T01:44:00;101023.34;;;0.73;100.00
22440;BME280;11387;51.612;7.210;2023-12-07T01:46:31;101035.75;;;0.74;100.00
22440;BME280;11387;51.612;7.210;2023-12-07T01:49:01;101035.47;;;0.82;100.00
22440;BME280;11387;51.612;7.210;2023-12-07T01:51:31;101031.50;;;0.84;100.00
22440;BME280;11387;51.612;7.210;2023-12-07T01:54:00;101036.91;;;0.84;100.00
22440;BME280;11387;51.612;7.210;2023-12-07T01:56:29;101034.88;;;0.80;100.00
22440;BME280;11387;51.612;7.210;2023-12-07T01:58:58;101035.69;;;0.80;100.00
22440;BME280;11387;51.612;7.210;2023-12-07T02:01:27;101035.38;;;0.70;100.00
22440;BME280;11387;51.612;7.210;2023-12-07T02:03:57;101039.06;;;0.76;100.00
22440;BME280;11387;51.612;7.210;2023-12-07T02:06:26;101045.09;;;0.71;100.00
22440;BME280;11387;51.612;7.210;2023-12-07T02:08:55;101041.22;;;0.67;100.00
22440;BME280;11387;51.612;7.210;2023-12-07T02:11:24;101031.50;;;0.66;100.00
22440;BME280;11387;51.612;7.210;2023-12-07T02:13:53;101030.81;;;0.71;100.00
22440;BME280;11387;51.612;7.210;2023-12-07T02:16:27;101036.81;;;0.73;100.00
22440;BME280;11387;51.612;7.210;2023-12-07T02:19:04;101036.22;;;0.71;100.00
22440;BME280;11387;51.612;7.210;2023-12-07T02:21:38;101037.31;;;0.63;100.00
22440;BME280;11387;51.612;7.210;2023-12-07T02:24:09;101045.03;;;0.59;100.00
22440;BME280;11387;51.612;7.210;2023-12-07T02:26:41;101043.31;;;0.65;100.00
22440;BME280;11387;51.612;7.210;2023-12-07T02:29:09;101049.13;;;0.62;100.00
22440;BME280;11387;51.612;7.210;2023-12-07T02:31:38;101041.75;;;0.57;100.00
22440;BME280;11387;51.612;7.210;2023-12-07T02:34:06;101044.56;;;0.62;100.00
22440;BME280;11387;51.612;7.210;2023-12-07T02:36:37;101033.13;;;0.67;100.00
22440;BME280;11387;51.612;7.210;2023-12-07T02:39:08;101046.75;;;0.72;100.00
22440;BME280;11387;51.612;7.210;2023-12-07T02:41:41;101049.84;;;0.76;100.00
22440;BME280;11387;51.612;7.210;2023-12-07T02:44:11;101045.19;;;0.83;100.00
22440;BME280;11387;51.612;7.210;2023-12-07T02:46:40;101045.44;;;0.81;100.00
22440;BME280;11387;51.612;7.210;2023-12-07T02:49:10;101048.94;;;0.82;100.00
22440;BME280;11387;51.612;7.210;2023-12-07T02:51:38;101049.31;;;0.85;100.00
22440;BME280;11387;51.612;7.210;2023-12-07T02:54:07;101053.13;;;0.78;100.00
22440;BME280;11387;51.612;7.210;2023-12-07T02:56:36;101057.19;;;0.87;100.00
22440;BME280;11387;51.612;7.210;2023-12-07T02:59:06;101053.06;;;0.84;100.00
22440;BME280;11387;51.612;7.210;2023-12-07T03:01:34;101056.47;;;0.73;100.00
22440;BME280;11387;51.612;7.210;2023-12-07T03:04:04;101057.25;;;0.80;100.00
22440;BME280;11387;51.612;7.210;2023-12-07T03:06:32;101046.59;;;0.67;100.00
22440;BME280;11387;51.612;7.210;2023-12-07T03:09:01;101050.78;;;0.63;100.00
22440;BME280;11387;51.612;7.210;2023-12-07T03:11:30;101053.25;;;0.64;100.00
22440;BME280;11387;51.612;7.210;2023-12-07T03:13:59;101055.72;;;0.66;100.00
22440;BME280;11387;51.612;7.210;2023-12-07T03:16:28;101050.06;;;0.74;100.00
22440;BME280;11387;51.612;7.210;2023-12-07T03:18:57;101042.19;;;0.73;100.00
22440;BME280;11387;51.612;7.210;2023-12-07T03:21:26;101037.03;;;0.71;100.00
22440;BME280;11387;51.612;7.210;2023-12-07T03:23:54;101039.13;;;0.69;100.00
22440;BME280;11387;51.612;7.210;2023-12-07T03:26:23;101029.56;;;0.73;100.00
22440;BME280;11387;51.612;7.210;2023-12-07T03:28:52;101035.38;;;0.70;100.00
22440;BME280;11387;51.612;7.210;2023-12-07T03:31:20;101035.75;;;0.74;100.00
22440;BME280;11387;51.612;7.210;2023-12-07T03:33:50;101035.09;;;0.60;100.00
22440;BME280;11387;51.612;7.210;2023-12-07T03:36:19;101035.53;;;0.57;100.00
22440;BME280;11387;51.612;7.210;2023-12-07T03:38:47;101037.84;;;0.72;100.00
22440;BME280;11387;51.612;7.210;2023-12-07T03:41:16;101032.69;;;0.70;100.00
22440;BME280;11387;51.612;7.210;2023-12-07T03:43:45;101028.34;;;0.69;100.00
22440;BME280;11387;51.612;7.210;2023-12-07T03:46:18;101033.34;;;0.65;100.00
22440;BME280;11387;51.612;7.210;2023-12-07T03:48:46;101037.84;;;0.72;100.00
22440;BME280;11387;51.612;7.210;2023-12-07T03:51:17;101048.63;;;0.72;100.00
22440;BME280;11387;51.612;7.210;2023-12-07T03:53:46;101041.38;;;0.72;100.00
22440;BME280;11387;51.612;7.210;2023-12-07T03:56:29;101046.09;;;0.77;100.00
22440;BME280;11387;51.612;7.210;2023-12-07T03:58:58;101047.97;;;0.76;100.00
22440;BME280;11387;51.612;7.210;2023-12-07T04:01:28;101044.94;;;0.66;100.00
22440;BME280;11387;51.612;7.210;2023-12-07T04:03:57;101036.16;;;0.77;100.00
22440;BME280;11387;51.612;7.210;2023-12-07T04:06:29;101046.09;;;0.77;100.00
22440;BME280;11387;51.612;7.210;2023-12-07T04:08:58;101054.84;;;0.72;100.00
22440;BME280;11387;51.612;7.210;2023-12-07T04:11:26;101055.00;;;0.77;100.00
22440;BME280;11387;51.612;7.210;2023-12-07T04:13:57;101051.97;;;0.67;100.00
22440;BME280;11387;51.612;7.210;2023-12-07T04:16:25;101056.31;;;0.68;100.00
22440;BME280;11387;51.612;7.210;2023-12-07T04:18:54;101058.13;;;0.74;100.00
22440;BME280;11387;51.612;7.210;2023-12-07T04:21:23;101058.66;;;0.83;100.00
22440;BME280;11387;51.612;7.210;2023-12-07T04:23:53;101063.69;;;0.79;100.00
22440;BME280;11387;51.612;7.210;2023-12-07T04:26:21;101064.34;;;0.75;100.00
22440;BME280;11387;51.612;7.210;2023-12-07T04:28:50;101070.25;;;0.83;100.00
22440;BME280;11387;51.612;7.210;2023-12-07T04:31:19;101067.56;;;0.83;100.00
22440;BME280;11387;51.612;7.210;2023-12-07T04:33:48;101063.97;;;0.71;100.00
22440;BME280;11387;51.612;7.210;2023-12-07T04:36:17;101074.72;;;0.71;100.00
22440;BME280;11387;51.612;7.210;2023-12-07T04:38:46;101073.47;;;0.74;100.00
22440;BME280;11387;51.612;7.210;2023-12-07T04:41:16;101074.44;;;0.79;100.00
22440;BME280;11387;51.612;7.210;2023-12-07T04:43:44;101077.59;;;0.76;100.00
22440;BME280;11387;51.612;7.210;2023-12-07T04:46:13;101075.13;;;0.75;100.00
22440;BME280;11387;51.612;7.210;2023-12-07T04:48:44;101077.25;;;0.66;100.00
22440;BME280;11387;51.612;7.210;2023-12-07T04:51:13;101080.56;;;0.68;100.00
22440;BME280;11387;51.612;7.210;2023-12-07T04:53:41;101078.03;;;0.73;100.00
22440;BME280;11387;51.612;7.210;2023-12-07T04:56:10;101090.00;;;0.77;100.00
22440;BME280;11387;51.612;7.210;2023-12-07T04:58:40;101083.19;;;0.75;100.00
22440;BME280;11387;51.612;7.210;2023-12-07T05:01:09;101085.00;;;0.81;100.00
22440;BME280;11387;51.612;7.210;2023-12-07T05:03:38;101087.47;;;0.82;100.00
22440;BME280;11387;51.612;7.210;2023-12-07T05:06:06;101087.03;;;0.85;100.00
22440;BME280;11387;51.612;7.210;2023-12-07T05:08:35;101090.16;;;0.82;100.00
22440;BME280;11387;51.612;7.210;2023-12-07T05:11:04;101083.72;;;0.83;100.00
22440;BME280;11387;51.612;7.210;2023-12-07T05:13:34;101080.44;;;0.81;100.00
22440;BME280;11387;51.612;7.210;2023-12-07T05:16:04;101083.28;;;0.86;100.00
22440;BME280;11387;51.612;7.210;2023-12-07T05:18:33;101084.56;;;0.84;100.00
22440;BME280;11387;51.612;7.210;2023-12-07T05:21:02;101084.13;;;0.87;100.00
22440;BME280;11387;51.612;7.210;2023-12-07T05:23:32;101082.84;;;0.89;100.00
22440;BME280;11387;51.612;7.210;2023-12-07T05:26:03;101084.78;;;1.00;100.00
22440;BME280;11387;51.612;7.210;2023-12-07T05:28:31;101087.25;;;1.02;100.00
22440;BME280;11387;51.612;7.210;2023-12-07T05:31:00;101083.50;;;1.03;100.00
22440;BME280;11387;51.612;7.210;2023-12-07T05:33:30;101091.81;;;1.01;100.00
22440;BME280;11387;51.612;7.210;2023-12-07T05:35:59;101092.19;;;1.05;100.00
22440;BME280;11387;51.612;7.210;2023-12-07T05:38:28;101092.34;;;1.10;100.00
22440;BME280;11387;51.612;7.210;2023-12-07T05:40:56;101085.00;;;1.17;100.00
22440;BME280;11387;51.612;7.210;2023-12-07T05:43:25;101093.59;;;1.26;100.00
22440;BME280;11387;51.612;7.210;2023-12-07T05:45:54;101097.81;;;1.22;100.00
22440;BME280;11387;51.612;7.210;2023-12-07T05:48:22;101095.13;;;1.22;100.00
22440;BME280;11387;51.612;7.210;2023-12-07T05:50:52;101095.47;;;1.25;100.00
22440;BME280;11387;51.612;7.210;2023-12-07T05:53:21;101095.41;;;1.32;100.00
22440;BME280;11387;51.612;7.210;2023-12-07T05:55:49;101094.50;;;1.38;100.00
22440;BME280;11387;51.612;7.210;2023-12-07T05:58:18;101096.16;;;1.39;100.00
22440;BME280;11387;51.612;7.210;2023-12-07T06:00:47;101083.41;;;1.46;100.00
22440;BME280;11387;51.612;7.210;2023-12-07T06:03:15;101087.66;;;1.54;100.00
22440;BME280;11387;51.612;7.210;2023-12-07T06:05:45;101079.97;;;1.39;100.00
22440;BME280;11387;51.612;7.210;2023-12-07T06:08:15;101090.06;;;1.44;100.00
22440;BME280;11387;51.612;7.210;2023-12-07T06:10:43;101087.16;;;1.45;100.00
22440;BME280;11387;51.612;7.210;2023-12-07T06:13:12;101080.94;;;1.45;100.00
22440;BME280;11387;51.612;7.210;2023-12-07T06:15:41;101084.13;;;1.53;100.00
22440;BME280;11387;51.612;7.210;2023-12-07T06:18:10;101073.59;;;1.52;100.00
22440;BME280;11387;51.612;7.210;2023-12-07T06:20:38;101070.06;;;1.51;100.00
22440;BME280;11387;51.612;7.210;2023-12-07T06:23:09;101085.78;;;1.54;100.00
22440;BME280;11387;51.612;7.210;2023-12-07T06:25:41;101081.56;;;1.58;100.00
22440;BME280;11387;51.612;7.210;2023-12-07T06:28:10;101075.94;;;1.60;100.00
22440;BME280;11387;51.612;7.210;2023-12-07T06:30:38;101074.53;;;1.57;100.00
22440;BME280;11387;51.612;7.210;2023-12-07T06:33:07;101078.88;;;1.58;100.00
22440;BME280;11387;51.612;7.210;2023-12-07T06:35:36;101081.13;;;1.61;100.00
22440;BME280;11387;51.612;7.210;2023-12-07T06:38:06;101083.97;;;1.66;100.00
22440;BME280;11387;51.612;7.210;2023-12-07T06:40:34;101071.53;;;1.65;100.00
22440;BME280;11387;51.612;7.210;2023-12-07T06:43:04;101082.81;;;1.74;100.00
22440;BME280;11387;51.612;7.210;2023-12-07T06:45:33;101085.53;;;1.74;100.00
22440;BME280;11387;51.612;7.210;2023-12-07T06:48:02;101081.63;;;1.70;100.00
22440;BME280;11387;51.612;7.210;2023-12-07T06:50:30;101083.06;;;1.73;100.00
22440;BME280;11387;51.612;7.210;2023-12-07T06:52:59;101078.09;;;1.69;100.00
22440;BME280;11387;51.612;7.210;2023-12-07T06:55:28;101080.94;;;1.75;100.00
22440;BME280;11387;51.612;7.210;2023-12-07T06:57:56;101088.81;;;1.76;100.00
22440;BME280;11387;51.612;7.210;2023-12-07T07:00:26;101084.78;;;1.67;100.00
22440;BME280;11387;51.612;7.210;2023-12-07T07:02:55;101072.53;;;1.53;100.00
22440;BME280;11387;51.612;7.210;2023-12-07T07:05:24;101080.50;;;1.48;100.00
22440;BME280;11387;51.612;7.210;2023-12-07T07:07:52;101075.34;;;1.28;100.00
22440;BME280;11387;51.612;7.210;2023-12-07T07:10:22;101076.25;;;1.22;100.00
22440;BME280;11387;51.612;7.210;2023-12-07T07:12:52;101068.75;;;1.06;100.00
22440;BME280;11387;51.612;7.210;2023-12-07T07:15:20;101068.91;;;0.92;100.00
22440;BME280;11387;51.612;7.210;2023-12-07T07:17:51;101062.34;;;0.88;100.00
22440;BME280;11387;51.612;7.210;2023-12-07T07:23:48;101059.47;;;0.65;100.00
22440;BME280;11387;51.612;7.210;2023-12-07T07:26:50;101059.22;;;0.48;100.00
22440;BME280;11387;51.612;7.210;2023-12-07T07:29:36;101058.44;;;0.41;100.00
22440;BME280;11387;51.612;7.210;2023-12-07T07:32:05;101064.22;;;0.45;100.00
22440;BME280;11387;51.612;7.210;2023-12-07T07:34:34;101065.44;;;0.49;100.00
22440;BME280;11387;51.612;7.210;2023-12-07T07:37:03;101061.69;;;0.50;100.00
22440;BME280;11387;51.612;7.210;2023-12-07T07:39:31;101067.69;;;0.52;100.00
22440;BME280;11387;51.612;7.210;2023-12-07T07:42:00;101063.34;;;0.51;100.00
22440;BME280;11387;51.612;7.210;2023-12-07T07:44:29;101052.56;;;0.51;100.00
22440;BME280;11387;51.612;7.210;2023-12-07T07:46:58;101069.94;;;0.55;100.00
22440;BME280;11387;51.612;7.210;2023-12-07T07:49:26;101066.59;;;0.59;100.00
22440;BME280;11387;51.612;7.210;2023-12-07T07:51:56;101066.50;;;0.66;100.00
22440;BME280;11387;51.612;7.210;2023-12-07T07:54:25;101072.03;;;0.71;100.00
22440;BME280;11387;51.612;7.210;2023-12-07T07:56:53;101064.34;;;0.75;100.00
22440;BME280;11387;51.612;7.210;2023-12-07T07:59:22;101067.56;;;0.83;100.00
22440;BME280;11387;51.612;7.210;2023-12-07T08:01:51;101066.81;;;0.94;100.00
22440;BME280;11387;51.612;7.210;2023-12-07T08:04:19;101067.19;;;0.98;100.00
22440;BME280;11387;51.612;7.210;2023-12-07T08:06:48;101067.78;;;1.00;100.00
22440;BME280;11387;51.612;7.210;2023-12-07T08:09:18;101063.38;;;1.06;100.00
22440;BME280;11387;51.612;7.210;2023-12-07T08:11:46;101063.91;;;1.14;100.00
22440;BME280;11387;51.612;7.210;2023-12-07T08:14:15;101067.09;;;1.41;100.00
22440;BME280;11387;51.612;7.210;2023-12-07T08:16:44;101063.47;;;2.30;100.00
22440;BME280;11387;51.612;7.210;2023-12-07T08:19:14;101066.41;;;3.67;100.00
22440;BME280;11387;51.612;7.210;2023-12-07T08:21:58;101064.94;;;4.22;100.00
22440;BME280;11387;51.612;7.210;2023-12-07T08:24:28;101061.50;;;4.26;100.00
22440;BME280;11387;51.612;7.210;2023-12-07T08:26:57;101069.88;;;5.19;100.00
22440;BME280;11387;51.612;7.210;2023-12-07T08:29:26;101078.06;;;6.53;100.00
22440;BME280;11387;51.612;7.210;2023-12-07T08:31:54;101077.91;;;8.10;98.35
22440;BME280;11387;51.612;7.210;2023-12-07T08:34:23;101069.28;;;9.33;84.41
22440;BME280;11387;51.612;7.210;2023-12-07T08:36:52;101079.69;;;9.80;77.42
22440;BME280;11387;51.612;7.210;2023-12-07T08:39:21;101082.34;;;10.98;74.46
22440;BME280;11387;51.612;7.210;2023-12-07T08:41:51;101092.13;;;11.52;66.24
22440;BME280;11387;51.612;7.210;2023-12-07T08:44:20;101090.00;;;12.42;64.98
22440;BME280;11387;51.612;7.210;2023-12-07T08:46:48;101099.28;;;12.79;58.94
22440;BME280;11387;51.612;7.210;2023-12-07T08:49:17;101098.25;;;12.75;56.80
22440;BME280;11387;51.612;7.210;2023-12-07T08:51:46;101091.72;;;12.38;58.04
22440;BME280;11387;51.612;7.210;2023-12-07T08:54:35;101085.34;;;12.75;56.71
22440;BME280;11387;51.612;7.210;2023-12-07T08:57:05;101089.97;;;13.07;53.03
22440;BME280;11387;51.612;7.210;2023-12-07T08:59:34;101091.38;;;12.59;52.80
22440;BME280;11387;51.612;7.210;2023-12-07T09:02:03;101101.78;;;13.63;52.88
22440;BME280;11387;51.612;7.210;2023-12-07T09:04:32;101101.91;;;12.19;52.68
22440;BME280;11387;51.612;7.210;2023-12-07T09:07:01;101104.75;;;12.79;52.71
22440;BME280;11387;51.612;7.210;2023-12-07T09:09:30;101106.25;;;13.18;52.00
22440;BME280;11387;51.612;7.210;2023-12-07T09:11:58;101103.69;;;13.07;52.11
22440;BME280;11387;51.612;7.210;2023-12-07T09:14:28;101101.25;;;12.60;51.04
22440;BME280;11387;51.612;7.210;2023-12-07T09:16:57;101100.88;;;11.54;52.51
22440;BME280;11387;51.612;7.210;2023-12-07T09:19:25;101102.13;;;9.13;61.81
22440;BME280;11387;51.612;7.210;2023-12-07T09:21:54;101102.94;;;7.92;70.19
22440;BME280;11387;51.612;7.210;2023-12-07T09:24:22;101095.19;;;9.46;66.88
22440;BME280;11387;51.612;7.210;2023-12-07T09:26:51;101102.59;;;11.68;57.46
22440;BME280;11387;51.612;7.210;2023-12-07T09:29:26;101097.84;;;13.41;53.95
22440;BME280;11387;51.612;7.210;2023-12-07T09:31:56;101107.13;;;14.76;48.42
22440;BME280;11387;51.612;7.210;2023-12-07T09:34:24;101107.53;;;14.61;45.99
22440;BME280;11387;51.612;7.210;2023-12-07T09:37:05;101093.31;;;14.67;44.20
22440;BME280;11387;51.612;7.210;2023-12-07T09:39:34;101107.06;;;15.21;43.98
22440;BME280;11387;51.612;7.210;2023-12-07T09:42:03;101099.94;;;14.08;44.41
22440;BME280;11387;51.612;7.210;2023-12-07T09:44:32;101094.69;;;13.98;45.77
22440;BME280;11387;51.612;7.210;2023-12-07T09:47:02;101091.16;;;13.83;46.06
22440;BME280;11387;51.612;7.210;2023-12-07T09:49:31;101089.16;;;13.75;45.73
22440;BME280;11387;51.612;7.210;2023-12-07T09:52:01;101095.53;;;15.58;43.69
22440;BME280;11387;51.612;7.210;2023-12-07T09:54:40;101092.69;;;16.49;41.01
22440;BME280;11387;51.612;7.210;2023-12-07T09:57:09;101080.88;;;18.13;37.69
22440;BME280;11387;51.612;7.210;2023-12-07T09:59:39;101076.38;;;16.57;39.68
22440;BME280;11387;51.612;7.210;2023-12-07T10:02:10;101073.81;;;16.69;38.56
22440;BME280;11387;51.612;7.210;2023-12-07T10:04:39;101081.31;;;16.08;40.05
22440;BME280;11387;51.612;7.210;2023-12-07T10:07:08;101068.97;;;16.14;40.49
22440;BME280;11387;51.612;7.210;2023-12-07T10:09:38;101073.09;;;17.65;37.86
22440;BME280;11387;51.612;7.210;2023-12-07T10:12:08;101063.53;;;17.83;36.13
22440;BME280;11387;51.612;7.210;2023-12-07T10:14:38;101056.97;;;17.88;36.03
22440;BME280;11387;51.612;7.210;2023-12-07T10:17:06;101057.72;;;18.51;34.42
22440;BME280;11387;51.612;7.210;2023-12-07T10:19:36;101064.31;;;16.87;36.79
22440;BME280;11387;51.612;7.210;2023-12-07T10:22:13;101057.72;;;17.76;35.53
22440;BME280;11387;51.612;7.210;2023-12-07T10:24:42;101040.28;;;17.76;35.42
22440;BME280;11387;51.612;7.210;2023-12-07T10:27:10;101040.91;;;18.35;35.28
22440;BME280;11387;51.612;7.210;2023-12-07T10:29:39;101033.09;;;18.70;33.63
22440;BME280;11387;51.612;7.210;2023-12-07T10:32:11;101033.66;;;18.31;34.12
22440;BME280;11387;51.612;7.210;2023-12-07T10:34:41;101026.44;;;18.50;33.54
22440;BME280;11387;51.612;7.210;2023-12-07T10:37:09;101028.16;;;19.37;32.27
22440;BME280;11387;51.612;7.210;2023-12-07T10:39:39;101024.94;;;18.86;32.76
22440;BME280;11387;51.612;7.210;2023-12-07T10:42:10;101018.53;;;18.28;35.40
22440;BME280;11387;51.612;7.210;2023-12-07T10:44:42;101020.06;;;19.68;33.26
22440;BME280;11387;51.612;7.210;2023-12-07T10:47:11;101030.13;;;19.48;31.41
22440;BME280;11387;51.612;7.210;2023-12-07T10:49:43;101018.63;;;17.48;33.91
22440;BME280;11387;51.612;7.210;2023-12-07T10:52:20;100998.47;;;16.25;37.47
22440;BME280;11387;51.612;7.210;2023-12-07T10:54:57;100994.56;;;17.49;34.76
22440;BME280;11387;51.612;7.210;2023-12-07T10:57:32;100993.50;;;19.18;32.64
22440;BME280;11387;51.612;7.210;2023-12-07T11:00:02;100986.44;;;18.39;32.47
22440;BME280;11387;51.612;7.210;2023-12-07T11:02:32;100991.00;;;16.26;36.58
22440;BME280;11387;51.612;7.210;2023-12-07T11:05:03;100970.13;;;14.90;38.88
22440;BME280;11387;51.612;7.210;2023-12-07T11:07:42;100966.72;;;14.54;39.43
22440;BME280;11387;51.612;7.210;2023-12-07T11:10:20;100962.97;;;14.49;40.57
22440;BME280;11387;51.612;7.210;2023-12-07T11:12:57;100960.03;;;16.58;37.37
22440;BME280;11387;51.612;7.210;2023-12-07T11:15:28;100954.34;;;18.38;34.87
22440;BME280;11387;51.612;7.210;2023-12-07T11:17:57;100959.75;;;19.04;33.01
22440;BME280;11387;51.612;7.210;2023-12-07T11:20:39;100956.91;;;18.43;33.62
22440;BME280;11387;51.612;7.210;2023-12-07T11:23:10;100953.06;;;19.17;32.54
22440;BME280;11387;51.612;7.210;2023-12-07T11:25:42;100955.69;;;19.26;32.51
22440;BME280;11387;51.612;7.210;2023-12-07T11:28:12;100941.31;;;17.31;34.60
22440;BME280;11387;51.612;7.210;2023-12-07T11:30:42;100935.84;;;17.85;34.90
22440;BME280;11387;51.612;7.210;2023-12-07T11:33:12;100936.50;;;17.20;34.45
22440;BME280;11387;51.612;7.210;2023-12-07T11:36:08;100930.97;;;16.14;35.52
22440;BME280;11387;51.612;7.210;2023-12-07T11:38:37;100924.50;;;16.86;34.98
22440;BME280;11387;51.612;7.210;2023-12-07T11:41:06;100914.00;;;17.09;34.89
22440;BME280;11387;51.612;7.210;2023-12-07T11:43:41;100921.59;;;18.28;33.21
22440;BME280;11387;51.612;7.210;2023-12-07T11:46:15;100913.03;;;17.88;32.98
22440;BME280;11387;51.612;7.210;2023-12-07T11:48:46;100904.66;;;15.04;36.50
22440;BME280;11387;51.612;7.210;2023-12-07T11:51:17;100894.75;;;16.54;36.20
22440;BME280;11387;51.612;7.210;2023-12-07T11:53:48;100885.72;;;16.44;35.44
22440;BME280;11387;51.612;7.210;2023-12-07T11:56:18;100883.84;;;17.37;35.29
22440;BME280;11387;51.612;7.210;2023-12-07T11:58:49;100875.66;;;16.78;34.86
22440;BME280;11387;51.612;7.210;2023-12-07T12:01:20;100877.06;;;17.88;32.76
22440;BME280;11387;51.612;7.210;2023-12-07T12:03:49;100877.78;;;18.09;32.62
22440;BME280;11387;51.612;7.210;2023-12-07T12:06:20;100871.78;;;17.21;34.36
22440;BME280;11387;51.612;7.210;2023-12-07T12:08:51;100870.81;;;15.81;35.43
22440;BME280;11387;51.612;7.210;2023-12-07T12:11:20;100868.66;;;17.01;33.40
22440;BME280;11387;51.612;7.210;2023-12-07T12:13:49;100870.00;;;14.95;36.45
22440;BME280;11387;51.612;7.210;2023-12-07T12:16:18;100859.31;;;12.39;41.99
22440;BME280;11387;51.612;7.210;2023-12-07T12:18:47;100852.16;;;10.94;46.71
22440;BME280;11387;51.612;7.210;2023-12-07T12:21:16;100853.88;;;9.66;50.68
22440;BME280;11387;51.612;7.210;2023-12-07T12:23:49;100846.75;;;8.42;56.47
22440;BME280;11387;51.612;7.210;2023-12-07T12:26:18;100839.31;;;7.33;62.45
22440;BME280;11387;51.612;7.210;2023-12-07T12:28:51;100827.50;;;6.76;65.78
22440;BME280;11387;51.612;7.210;2023-12-07T12:31:21;100825.50;;;6.41;68.36
22440;BME280;11387;51.612;7.210;2023-12-07T12:33:56;100820.56;;;6.28;70.75
22440;BME280;11387;51.612;7.210;2023-12-07T12:36:31;100823.56;;;6.42;70.04
22440;BME280;11387;51.612;7.210;2023-12-07T12:39:02;100821.69;;;6.37;71.25
22440;BME280;11387;51.612;7.210;2023-12-07T12:41:33;100813.00;;;6.46;70.27
22440;BME280;11387;51.612;7.210;2023-12-07T12:44:02;100820.34;;;6.50;70.04
22440;BME280;11387;51.612;7.210;2023-12-07T12:46:31;100824.41;;;6.37;69.23
22440;BME280;11387;51.612;7.210;2023-12-07T12:49:04;100818.06;;;6.22;70.36
22440;BME280;11387;51.612;7.210;2023-12-07T12:51:37;100812.06;;;6.10;70.65
22440;BME280;11387;51.612;7.210;2023-12-07T12:54:08;100813.13;;;6.08;69.77
22440;BME280;11387;51.612;7.210;2023-12-07T12:56:50;100811.59;;;5.81;71.39
22440;BME280;11387;51.612;7.210;2023-12-07T12:59:20;100807.13;;;5.64;72.44
22440;BME280;11387;51.612;7.210;2023-12-07T13:01:53;100808.16;;;5.58;72.48
22440;BME280;11387;51.612;7.210;2023-12-07T13:04:23;100808.00;;;5.70;72.54
22440;BME280;11387;51.612;7.210;2023-12-07T13:06:53;100802.47;;;5.60;73.38
22440;BME280;11387;51.612;7.210;2023-12-07T13:09:23;100794.56;;;5.48;72.67